createdAt,value
2024-03-02T00:00:52.930Z,2.17
2024-03-02T00:03:20.475Z,2.00
2024-03-02T00:05:53.077Z,3.47
2024-03-02T00:08:30.451Z,2.00
2024-03-02T00:11:02.113Z,2.53
2024-03-02T00:13:31.045Z,2.08
2024-03-02T00:15:58.345Z,2.05
2024-03-02T00:18:36.602Z,2.47
2024-03-02T00:21:04.660Z,1.90
2024-03-02T00:23:32.601Z,2.85
2024-03-02T00:26:01.322Z,2.10
2024-03-02T00:28:35.899Z,2.20
2024-03-02T00:31:12.606Z,3.08
2024-03-02T00:33:43.814Z,1.92
2024-03-02T00:36:12.049Z,2.00
2024-03-02T00:38:48.925Z,2.22
2024-03-02T00:41:24.265Z,3.72
2024-03-02T00:44:02.008Z,2.40
2024-03-02T00:46:32.374Z,3.67
2024-03-02T00:49:01.413Z,2.25
2024-03-02T00:51:31.466Z,2.70
2024-03-02T00:54:05.589Z,2.60
2024-03-02T00:56:33.968Z,3.13
2024-03-02T00:59:00.645Z,2.22
2024-03-02T01:01:27.321Z,2.85
2024-03-02T01:03:54.352Z,2.80
2024-03-02T01:06:21.263Z,2.75
2024-03-02T01:08:52.191Z,4.63
2024-03-02T01:11:19.526Z,4.53
2024-03-02T01:13:47.505Z,3.08
2024-03-02T01:16:14.646Z,3.70
2024-03-02T01:18:41.453Z,3.78
2024-03-02T01:21:08.449Z,3.78
2024-03-02T01:26:01.672Z,4.68
2024-03-02T01:28:28.921Z,3.15
2024-03-02T01:30:55.687Z,3.60
2024-03-02T01:33:22.569Z,4.18
2024-03-02T01:38:15.833Z,4.40
2024-03-02T01:40:43.401Z,4.68
2024-03-02T01:43:10.032Z,4.43
2024-03-02T01:45:38.313Z,3.88
2024-03-02T01:48:07.976Z,4.25
2024-03-02T01:50:35.585Z,4.95
2024-03-02T01:53:04.241Z,4.30
2024-03-02T01:55:31.856Z,4.65
2024-03-02T01:57:59.393Z,4.53
2024-03-02T02:00:28.049Z,4.70
2024-03-02T02:02:56.209Z,3.88
2024-03-02T02:05:23.320Z,3.42
2024-03-02T02:07:50.422Z,6.72
2024-03-02T02:10:17.281Z,3.30
2024-03-02T02:15:28.564Z,5.30
2024-03-02T02:17:56.702Z,4.05
2024-03-02T02:20:24.578Z,3.83
2024-03-02T02:23:03.446Z,3.75
2024-03-02T02:25:31.031Z,4.05
2024-03-02T02:27:59.292Z,3.78
2024-03-02T02:30:31.346Z,3.50
2024-03-02T02:32:59.349Z,3.95
2024-03-02T02:35:26.371Z,3.85
2024-03-02T02:40:20.835Z,5.80
2024-03-02T02:42:48.362Z,4.25
2024-03-02T02:45:16.396Z,4.47
2024-03-02T02:47:43.907Z,4.00
2024-03-02T02:50:12.340Z,4.85
2024-03-02T02:52:41.654Z,4.10
2024-03-02T02:55:10.522Z,4.22
2024-03-02T02:57:39.150Z,5.03
2024-03-02T03:00:24.247Z,5.03
2024-03-02T03:02:51.739Z,3.70
2024-03-02T03:05:19.380Z,4.20
2024-03-02T03:07:46.475Z,4.70
2024-03-02T03:10:14.730Z,5.50
2024-03-02T03:12:43.200Z,6.28
2024-03-02T03:15:11.117Z,5.72
2024-03-02T03:17:38.884Z,4.63
2024-03-02T03:20:07.081Z,5.05
2024-03-02T03:22:33.976Z,6.45
2024-03-02T03:25:01.012Z,5.20
2024-03-02T03:27:27.874Z,6.95
2024-03-02T03:29:55.525Z,5.40
2024-03-02T03:32:22.886Z,4.43
2024-03-02T03:34:49.869Z,6.00
2024-03-02T03:37:16.702Z,4.55
2024-03-02T03:39:43.456Z,5.47
2024-03-02T03:42:10.175Z,5.13
2024-03-02T03:44:36.862Z,4.00
2024-03-02T03:47:03.972Z,4.70
2024-03-02T03:49:30.677Z,4.75
2024-03-02T03:51:57.389Z,4.60
2024-03-02T03:54:24.105Z,4.13
2024-03-02T03:56:50.753Z,4.63
2024-03-02T03:59:17.540Z,4.05
2024-03-02T04:04:11.047Z,5.90
2024-03-02T04:06:37.804Z,4.05
2024-03-02T04:09:05.186Z,4.55
2024-03-02T04:11:32.272Z,4.00
2024-03-02T04:13:59.195Z,3.95
2024-03-02T04:16:25.986Z,3.03
2024-03-02T04:18:52.893Z,4.10
2024-03-02T04:23:46.182Z,3.45
2024-03-02T04:26:12.844Z,3.28
2024-03-02T04:28:39.455Z,3.40
2024-03-02T04:31:06.160Z,3.45
2024-03-02T04:33:32.998Z,3.10
2024-03-02T04:38:26.162Z,4.00
2024-03-02T04:40:52.780Z,5.05
2024-03-02T04:43:20.406Z,4.00
2024-03-02T04:45:47.191Z,2.47
2024-03-02T04:50:42.057Z,2.60
2024-03-02T04:53:09.115Z,2.30
2024-03-02T04:55:35.858Z,3.08
2024-03-02T04:58:02.603Z,3.00
2024-03-02T05:00:29.395Z,3.45
2024-03-02T05:02:56.104Z,2.58
2024-03-02T05:05:22.733Z,3.47
2024-03-02T05:07:49.447Z,2.40
2024-03-02T05:10:16.683Z,2.67
2024-03-02T05:12:43.510Z,3.67
2024-03-02T05:15:14.515Z,2.13
2024-03-02T05:17:44.340Z,1.77
2024-03-02T05:20:12.046Z,2.00
2024-03-02T05:22:38.986Z,2.75
2024-03-02T05:25:06.517Z,2.70
2024-03-02T05:27:34.226Z,2.08
2024-03-02T05:30:01.461Z,3.08
2024-03-02T05:32:28.508Z,4.18
2024-03-02T05:34:56.200Z,2.90
2024-03-02T05:37:22.987Z,4.53
2024-03-02T05:39:49.771Z,5.70
2024-03-02T05:44:44.847Z,3.45
2024-03-02T05:47:11.491Z,3.90
2024-03-02T05:49:38.166Z,3.25
2024-03-02T05:52:04.934Z,2.63
2024-03-02T05:54:31.568Z,2.70
2024-03-02T05:56:58.226Z,3.60
2024-03-02T05:59:24.825Z,3.75
2024-03-02T06:01:54.477Z,4.53
2024-03-02T06:04:21.178Z,5.25
2024-03-02T06:06:47.850Z,2.40
2024-03-02T06:09:14.647Z,3.72
2024-03-02T06:11:42.554Z,2.50
2024-03-02T06:14:10.311Z,3.08
2024-03-02T06:16:36.993Z,2.78
2024-03-02T06:19:04.087Z,2.95
2024-03-02T06:21:31.131Z,4.75
2024-03-02T06:23:58.190Z,4.03
2024-03-02T06:26:26.147Z,4.47
2024-03-02T06:28:53.532Z,5.63
2024-03-02T06:31:20.377Z,5.35
2024-03-02T06:33:47.251Z,5.38
2024-03-02T06:36:14.052Z,5.68
2024-03-02T06:38:43.908Z,6.55
2024-03-02T06:41:10.841Z,5.43
2024-03-02T06:43:37.599Z,5.70
2024-03-02T06:46:04.590Z,5.43
2024-03-02T06:48:31.682Z,5.85
2024-03-02T06:50:59.579Z,8.38
2024-03-02T06:53:26.702Z,6.43
2024-03-02T06:55:53.502Z,5.82
2024-03-02T06:58:20.184Z,5.10
2024-03-02T07:00:46.845Z,6.63
2024-03-02T07:03:13.840Z,7.03
2024-03-02T07:05:40.717Z,5.13
2024-03-02T07:10:34.213Z,5.93
2024-03-02T07:13:01.259Z,5.55
2024-03-02T07:15:28.400Z,4.97
2024-03-02T07:17:55.344Z,5.65
2024-03-02T07:22:48.628Z,4.45
2024-03-02T07:27:45.325Z,3.88
2024-03-02T07:30:15.510Z,6.03
2024-03-02T07:32:43.396Z,6.80
2024-03-02T07:35:10.061Z,6.85
2024-03-02T07:37:36.807Z,8.35
2024-03-02T07:40:04.201Z,7.82
2024-03-02T07:42:31.066Z,8.10
2024-03-02T07:44:57.729Z,4.32
2024-03-02T07:47:24.623Z,4.75
2024-03-02T07:52:17.784Z,4.20
2024-03-02T07:54:44.882Z,4.65
2024-03-02T07:57:11.887Z,4.43
2024-03-02T07:59:39.630Z,4.13
2024-03-02T08:02:06.643Z,4.68
2024-03-02T08:04:33.266Z,5.35
2024-03-02T08:07:00.183Z,3.67
2024-03-02T08:09:27.106Z,4.20
2024-03-02T08:11:53.766Z,4.50
2024-03-02T08:14:20.562Z,6.05
2024-03-02T08:19:14.022Z,2.83
2024-03-02T08:21:40.738Z,5.25
2024-03-02T08:24:08.038Z,4.78
2024-03-02T08:26:35.248Z,3.42
2024-03-02T08:29:04.981Z,3.72
2024-03-02T08:31:31.916Z,4.32
2024-03-02T08:33:58.720Z,5.05
2024-03-02T08:36:25.585Z,3.13
2024-03-02T08:38:52.641Z,2.88
2024-03-02T08:41:19.586Z,2.88
2024-03-02T08:43:46.282Z,4.22
2024-03-02T08:46:12.996Z,4.40
2024-03-02T08:51:08.855Z,2.80
2024-03-02T08:53:35.589Z,3.70
2024-03-02T08:56:03.347Z,5.05
2024-03-02T08:58:30.459Z,3.03
2024-03-02T09:00:57.192Z,6.97
2024-03-02T09:05:50.455Z,2.83
2024-03-02T09:08:17.121Z,2.55
2024-03-02T09:10:44.904Z,3.25
2024-03-02T09:13:11.721Z,3.15
2024-03-02T09:15:40.945Z,2.83
2024-03-02T09:18:08.050Z,4.15
2024-03-02T09:20:35.115Z,3.35
2024-03-02T09:23:01.817Z,3.80
2024-03-02T09:25:28.679Z,3.50
2024-03-02T09:27:55.596Z,3.03
2024-03-02T09:30:22.311Z,3.65
2024-03-02T09:32:50.577Z,3.60
2024-03-02T09:35:17.517Z,3.75
2024-03-02T09:40:11.424Z,3.95
2024-03-02T09:42:38.516Z,4.47
2024-03-02T09:45:06.240Z,4.40
2024-03-02T09:47:33.028Z,4.65
2024-03-02T09:50:00.489Z,3.10
2024-03-02T09:52:27.508Z,4.70
2024-03-02T09:54:54.331Z,3.45
2024-03-02T09:57:21.049Z,3.95
2024-03-02T10:02:14.201Z,3.25
2024-03-02T10:04:40.888Z,2.83
2024-03-02T10:07:12.860Z,4.90
2024-03-02T10:09:40.117Z,4.20
2024-03-02T10:12:08.743Z,2.58
2024-03-02T10:14:35.982Z,2.97
2024-03-02T10:17:04.766Z,3.35
2024-03-02T10:19:36.063Z,3.92
2024-03-02T10:22:04.932Z,3.13
2024-03-02T10:24:38.918Z,7.07
2024-03-02T10:27:23.945Z,4.47
2024-03-02T10:29:50.980Z,2.95
2024-03-02T10:32:18.034Z,3.05
2024-03-02T10:34:50.779Z,3.13
2024-03-02T10:37:18.801Z,5.85
2024-03-02T10:39:47.635Z,2.75
2024-03-02T10:42:15.837Z,3.45
2024-03-02T10:44:44.003Z,2.55
2024-03-02T10:47:13.736Z,2.33
2024-03-02T10:49:44.928Z,4.03
2024-03-02T10:52:11.733Z,5.20
2024-03-02T10:54:40.874Z,3.65
2024-03-02T10:57:10.914Z,3.55
2024-03-02T10:59:46.059Z,2.22
2024-03-02T11:02:14.946Z,3.50
2024-03-02T11:04:43.208Z,4.53
2024-03-02T11:07:12.192Z,2.17
2024-03-02T11:10:01.001Z,3.30
2024-03-02T11:12:33.042Z,3.60
2024-03-02T11:15:01.444Z,3.08
2024-03-02T11:17:29.292Z,3.40
2024-03-02T11:19:56.445Z,3.35
2024-03-02T11:22:23.260Z,2.38
2024-03-02T11:24:51.260Z,3.10
2024-03-02T11:27:47.251Z,4.60
2024-03-02T11:30:32.821Z,11.88
2024-03-02T11:33:11.912Z,2.58
2024-03-02T11:35:50.229Z,3.17
2024-03-02T11:38:17.050Z,2.65
2024-03-02T11:40:44.128Z,3.00
2024-03-02T11:43:12.440Z,2.38
2024-03-02T11:45:42.528Z,2.10
2024-03-02T11:48:13.927Z,3.47
2024-03-02T11:50:50.061Z,2.72
2024-03-02T11:53:18.197Z,2.17
2024-03-02T11:55:48.123Z,2.63
2024-03-02T11:58:15.886Z,3.22
2024-03-02T12:00:42.697Z,1.90
2024-03-02T12:03:13.508Z,2.08
2024-03-02T12:05:40.578Z,4.35
2024-03-02T12:08:08.298Z,5.65
2024-03-02T12:10:37.397Z,2.85
2024-03-02T12:13:07.762Z,4.82
2024-03-02T12:15:38.008Z,2.83
2024-03-02T12:18:06.178Z,4.03
2024-03-02T12:20:34.215Z,3.30
2024-03-02T12:23:03.608Z,2.78
2024-03-02T12:25:32.875Z,3.03
2024-03-02T12:28:02.168Z,2.55
2024-03-02T12:30:31.682Z,2.00
2024-03-02T12:32:59.200Z,3.25
2024-03-02T12:35:26.715Z,3.63
2024-03-02T12:37:54.982Z,3.90
2024-03-02T12:40:24.067Z,2.08
2024-03-02T12:42:52.482Z,2.60
2024-03-02T12:45:26.162Z,2.13
2024-03-02T12:47:53.700Z,2.33
2024-03-02T12:50:21.434Z,2.85
2024-03-02T12:52:54.696Z,3.47
2024-03-02T12:55:26.028Z,4.63
2024-03-02T12:57:53.862Z,6.85
2024-03-02T13:00:23.744Z,4.40
2024-03-02T13:02:53.009Z,4.40
2024-03-02T13:05:21.249Z,4.65
2024-03-02T13:07:49.630Z,3.90
2024-03-02T13:10:17.009Z,7.93
2024-03-02T13:12:43.824Z,6.30
2024-03-02T13:15:14.277Z,2.92
2024-03-02T13:17:42.964Z,3.15
2024-03-02T13:22:39.173Z,5.05
2024-03-02T13:25:07.363Z,5.55
2024-03-02T13:27:34.671Z,6.20
2024-03-02T13:30:02.565Z,4.35
2024-03-02T13:32:29.225Z,13.98
2024-03-02T13:37:22.860Z,9.10
2024-03-02T13:39:50.086Z,8.30
2024-03-02T13:42:17.495Z,7.05
2024-03-02T13:44:49.424Z,6.22
2024-03-02T13:47:16.834Z,7.65
2024-03-02T13:49:48.299Z,5.93
2024-03-02T13:52:16.264Z,6.30
2024-03-02T13:54:46.597Z,6.00
2024-03-02T13:57:13.831Z,20.63
2024-03-02T13:59:42.159Z,13.57
2024-03-02T14:02:09.904Z,6.95
2024-03-02T14:04:37.244Z,17.48
2024-03-02T14:07:04.477Z,12.15
2024-03-02T14:09:31.420Z,14.27
2024-03-02T14:11:58.862Z,15.30
2024-03-02T14:14:25.796Z,12.90
2024-03-02T14:16:52.963Z,14.90
2024-03-02T14:19:19.694Z,8.15
2024-03-02T14:21:46.923Z,7.63
2024-03-02T14:24:13.690Z,7.63
2024-03-02T14:29:07.006Z,8.57
2024-03-02T14:34:01.528Z,6.95
2024-03-02T14:36:29.445Z,8.18
2024-03-02T14:38:56.918Z,8.18
2024-03-02T14:41:25.584Z,10.50
2024-03-02T14:43:53.208Z,23.38
2024-03-02T14:46:20.497Z,8.60
2024-03-02T14:48:47.761Z,15.45
2024-03-02T14:51:15.232Z,13.25
2024-03-02T14:53:42.756Z,6.95
2024-03-02T14:56:09.784Z,7.32
2024-03-02T14:58:39.412Z,7.50
2024-03-02T15:01:10.216Z,7.97
2024-03-02T15:03:37.175Z,6.32
2024-03-02T15:06:05.401Z,5.60
2024-03-02T15:08:32.360Z,7.43
2024-03-02T15:11:00.772Z,7.47
2024-03-02T15:13:27.725Z,8.80
2024-03-02T15:15:54.611Z,6.50
2024-03-02T15:18:21.405Z,6.55
2024-03-02T15:20:48.137Z,7.80
2024-03-02T15:25:42.179Z,6.70
2024-03-02T15:28:09.378Z,6.88
2024-03-02T15:30:36.222Z,6.75
2024-03-02T15:33:03.130Z,6.05
2024-03-02T15:35:29.843Z,7.43
2024-03-02T15:40:23.233Z,6.75
2024-03-02T15:45:16.579Z,4.78
2024-03-02T15:47:43.417Z,5.18
2024-03-02T15:50:10.586Z,5.30
2024-03-02T15:52:37.558Z,5.90
2024-03-02T15:55:06.925Z,4.20
2024-03-02T15:57:34.165Z,4.38
2024-03-02T16:00:00.835Z,4.75
2024-03-02T16:04:54.046Z,4.45
2024-03-02T16:07:21.442Z,4.13
2024-03-02T16:09:48.129Z,4.55
2024-03-02T16:12:14.788Z,4.38
2024-03-02T16:14:41.771Z,4.53
2024-03-02T16:17:10.289Z,3.78
2024-03-02T16:19:40.744Z,3.53
2024-03-02T16:22:09.632Z,2.90
2024-03-02T16:24:36.482Z,3.20
2024-03-02T16:27:03.417Z,3.42
2024-03-02T16:29:30.026Z,2.83
2024-03-02T16:34:23.474Z,3.03
2024-03-02T16:36:50.274Z,4.10
2024-03-02T16:39:17.237Z,3.53
2024-03-02T16:44:15.139Z,6.45
2024-03-02T16:46:41.958Z,3.20
2024-03-02T16:49:11.562Z,2.88
2024-03-02T16:51:44.866Z,3.17
2024-03-02T16:54:11.643Z,7.80
2024-03-02T16:59:08.878Z,12.15
2024-03-02T17:01:35.863Z,3.45
2024-03-02T17:04:05.329Z,5.57
2024-03-02T17:06:32.360Z,4.80
2024-03-02T17:08:58.996Z,4.25
2024-03-02T17:11:29.327Z,4.20
2024-03-02T17:13:58.959Z,3.80
2024-03-02T17:16:26.316Z,3.80
2024-03-02T17:18:53.723Z,3.83
2024-03-02T17:21:21.103Z,3.15
2024-03-02T17:23:48.232Z,3.97
2024-03-02T17:26:15.049Z,3.72
2024-03-02T17:28:43.097Z,3.40
2024-03-02T17:31:10.426Z,4.07
2024-03-02T17:33:37.555Z,4.75
2024-03-02T17:36:05.294Z,4.30
2024-03-02T17:38:32.709Z,3.85
2024-03-02T17:41:01.858Z,4.28
2024-03-02T17:43:28.548Z,4.38
2024-03-02T17:45:55.403Z,4.03
2024-03-02T17:48:23.200Z,4.95
2024-03-02T17:50:51.126Z,6.03
2024-03-02T17:53:17.970Z,6.45
2024-03-02T17:55:45.091Z,5.78
2024-03-02T17:58:11.856Z,5.22
2024-03-02T18:03:08.784Z,4.78
2024-03-02T18:05:38.269Z,4.32
2024-03-02T18:08:05.371Z,3.85
2024-03-02T18:10:32.878Z,5.55
2024-03-02T18:12:59.741Z,5.07
2024-03-02T18:15:27.142Z,4.78
2024-03-02T18:17:53.845Z,4.50
2024-03-02T18:20:20.518Z,5.50
2024-03-02T18:25:13.759Z,4.32
2024-03-02T18:30:11.918Z,4.60
2024-03-02T18:32:39.621Z,4.97
2024-03-02T18:35:09.463Z,4.88
2024-03-02T18:37:37.868Z,4.65
2024-03-02T18:40:07.927Z,4.63
2024-03-02T18:42:34.868Z,5.65
2024-03-02T18:45:06.091Z,4.80
2024-03-02T18:47:35.985Z,4.80
2024-03-02T18:50:05.944Z,4.55
2024-03-02T18:52:36.062Z,5.22
2024-03-02T18:55:03.985Z,5.07
2024-03-02T18:57:34.195Z,5.40
2024-03-02T19:00:00.837Z,4.80
2024-03-02T19:02:29.525Z,4.53
2024-03-02T19:04:56.335Z,3.83
2024-03-02T19:07:23.722Z,4.82
2024-03-02T19:09:50.389Z,4.40
2024-03-02T19:14:43.643Z,5.05
2024-03-02T19:19:38.308Z,3.97
2024-03-02T19:22:10.911Z,4.78
2024-03-02T19:24:41.070Z,4.47
2024-03-02T19:29:34.475Z,5.15
2024-03-02T19:34:34.993Z,4.43
2024-03-02T19:37:01.723Z,5.28
2024-03-02T19:41:56.606Z,3.50
2024-03-02T19:44:30.869Z,3.67
2024-03-02T19:46:57.873Z,5.68
2024-03-02T19:49:25.471Z,4.68
2024-03-02T19:51:52.422Z,4.13
2024-03-02T19:54:19.069Z,4.25
2024-03-02T19:56:47.253Z,3.47
2024-03-02T19:59:14.936Z,5.25
2024-03-02T20:01:42.706Z,4.00
2024-03-02T20:04:10.896Z,3.72
2024-03-02T20:06:37.758Z,5.68
2024-03-02T20:09:04.445Z,4.63
2024-03-02T20:14:01.790Z,3.45
2024-03-02T20:18:55.131Z,3.72
2024-03-02T20:21:21.907Z,4.38
2024-03-02T20:26:18.186Z,4.88
2024-03-02T20:28:46.890Z,3.70
2024-03-02T20:31:15.970Z,3.33
2024-03-02T20:33:43.940Z,3.78
2024-03-02T20:36:16.196Z,4.03
2024-03-02T20:38:43.772Z,4.40
2024-03-02T20:41:21.392Z,3.80
2024-03-02T20:43:49.574Z,4.22
2024-03-02T20:46:17.415Z,3.85
2024-03-02T20:48:47.910Z,7.97
2024-03-02T20:51:15.842Z,3.88
2024-03-02T20:53:43.659Z,4.45
2024-03-02T20:56:11.053Z,3.85
2024-03-02T20:58:38.822Z,4.63
2024-03-02T21:01:07.621Z,4.95
2024-03-02T21:03:39.134Z,3.60
2024-03-02T21:06:06.486Z,5.07
2024-03-02T21:08:34.136Z,4.55
2024-03-02T21:11:03.684Z,4.25
2024-03-02T21:13:34.056Z,5.07
2024-03-02T21:16:01.613Z,5.45
2024-03-02T21:18:28.971Z,4.43
2024-03-02T21:20:56.362Z,4.82
2024-03-02T21:23:23.983Z,4.25
2024-03-02T21:25:51.561Z,5.65
2024-03-02T21:28:19.091Z,6.15
2024-03-02T21:30:47.228Z,5.75
2024-03-02T21:33:14.069Z,5.38
2024-03-02T21:38:08.418Z,5.53
2024-03-02T21:40:35.217Z,6.25
2024-03-02T21:43:02.135Z,5.25
2024-03-02T21:45:29.013Z,4.65
2024-03-02T21:50:22.260Z,5.38
2024-03-02T21:52:50.449Z,4.75
2024-03-02T21:55:17.394Z,5.35
2024-03-02T21:57:45.560Z,6.65
2024-03-02T22:00:12.383Z,5.57
2024-03-02T22:02:42.032Z,6.88
2024-03-02T22:07:35.466Z,7.40
2024-03-02T22:10:02.440Z,6.65
2024-03-02T22:12:29.154Z,7.53
2024-03-02T22:14:55.833Z,8.00
2024-03-02T22:19:50.530Z,7.40
2024-03-02T22:22:17.267Z,9.40
2024-03-02T22:24:44.234Z,5.85
2024-03-02T22:29:38.955Z,7.22
2024-03-02T22:32:06.852Z,6.97
2024-03-02T22:34:33.480Z,7.30
2024-03-02T22:37:00.141Z,8.57
2024-03-02T22:41:56.699Z,8.25
2024-03-02T22:44:24.670Z,10.90
2024-03-02T22:46:52.918Z,8.38
2024-03-02T22:49:20.940Z,8.52
2024-03-02T22:51:48.421Z,8.88
2024-03-02T22:54:17.492Z,8.90
2024-03-02T22:56:46.662Z,9.02
2024-03-02T22:59:14.387Z,9.98
2024-03-02T23:01:42.899Z,10.18
2024-03-02T23:04:10.622Z,9.82
2024-03-02T23:06:38.128Z,10.65
2024-03-02T23:09:06.346Z,10.45
2024-03-02T23:11:33.567Z,9.65
2024-03-02T23:14:01.446Z,11.40
2024-03-02T23:16:30.344Z,10.38
2024-03-02T23:18:58.247Z,11.80
2024-03-02T23:21:26.031Z,10.93
2024-03-02T23:23:54.433Z,11.02
2024-03-02T23:26:24.439Z,12.02
2024-03-02T23:28:52.036Z,11.25
2024-03-02T23:31:20.043Z,10.40
2024-03-02T23:33:50.647Z,11.82
2024-03-02T23:36:18.354Z,10.02
2024-03-02T23:38:45.736Z,11.60
2024-03-02T23:41:14.168Z,12.90
2024-03-02T23:43:42.049Z,13.65
2024-03-02T23:46:12.906Z,13.77
2024-03-02T23:48:40.900Z,15.70
2024-03-02T23:51:08.886Z,16.08
2024-03-02T23:53:36.557Z,14.68
2024-03-02T23:56:15.196Z,15.73
2024-03-02T23:58:42.836Z,12.68
